sensor_id;sensor_type;location;lat;lon;timestamp;P1;durP1;ratioP1;P2;durP2;ratioP2
61250;SDS011;47126;47.508;8.590;2023-08-30T00:00:18;12.73;;;7.05;;
61250;SDS011;47126;47.508;8.590;2023-08-30T00:02:46;13.30;;;7.90;;
61250;SDS011;47126;47.508;8.590;2023-08-30T00:05:12;14.23;;;8.05;;
61250;SDS011;47126;47.508;8.590;2023-08-30T00:07:38;15.40;;;7.22;;
61250;SDS011;47126;47.508;8.590;2023-08-30T00:10:07;13.50;;;7.63;;
61250;SDS011;47126;47.508;8.590;2023-08-30T00:12:35;13.20;;;7.53;;
61250;SDS011;47126;47.508;8.590;2023-08-30T00:15:01;13.50;;;8.00;;
61250;SDS011;47126;47.508;8.590;2023-08-30T00:17:34;13.13;;;7.47;;
61250;SDS011;47126;47.508;8.590;2023-08-30T00:20:00;12.68;;;6.78;;
61250;SDS011;47126;47.508;8.590;2023-08-30T00:22:26;12.80;;;6.72;;
61250;SDS011;47126;47.508;8.590;2023-08-30T00:24:52;10.65;;;6.10;;
61250;SDS011;47126;47.508;8.590;2023-08-30T00:27:18;12.38;;;6.93;;
61250;SDS011;47126;47.508;8.590;2023-08-30T00:29:45;14.15;;;6.90;;
61250;SDS011;47126;47.508;8.590;2023-08-30T00:32:11;11.18;;;7.15;;
61250;SDS011;47126;47.508;8.590;2023-08-30T00:34:38;13.73;;;7.03;;
61250;SDS011;47126;47.508;8.590;2023-08-30T00:37:04;13.77;;;7.93;;
61250;SDS011;47126;47.508;8.590;2023-08-30T00:39:30;13.90;;;7.80;;
61250;SDS011;47126;47.508;8.590;2023-08-30T00:41:56;13.20;;;6.88;;
61250;SDS011;47126;47.508;8.590;2023-08-30T00:44:22;10.95;;;6.53;;
61250;SDS011;47126;47.508;8.590;2023-08-30T00:46:48;14.43;;;6.50;;
61250;SDS011;47126;47.508;8.590;2023-08-30T00:49:14;13.75;;;6.88;;
61250;SDS011;47126;47.508;8.590;2023-08-30T00:51:40;13.30;;;7.35;;
61250;SDS011;47126;47.508;8.590;2023-08-30T00:54:06;12.73;;;6.53;;
61250;SDS011;47126;47.508;8.590;2023-08-30T00:56:32;11.45;;;6.57;;
61250;SDS011;47126;47.508;8.590;2023-08-30T00:58:58;11.73;;;6.80;;
61250;SDS011;47126;47.508;8.590;2023-08-30T01:01:24;12.20;;;7.55;;
61250;SDS011;47126;47.508;8.590;2023-08-30T01:03:50;13.20;;;6.78;;
61250;SDS011;47126;47.508;8.590;2023-08-30T01:06:16;11.38;;;7.18;;
61250;SDS011;47126;47.508;8.590;2023-08-30T01:08:42;13.93;;;7.32;;
61250;SDS011;47126;47.508;8.590;2023-08-30T01:11:22;13.88;;;7.88;;
61250;SDS011;47126;47.508;8.590;2023-08-30T01:13:56;15.23;;;8.23;;
61250;SDS011;47126;47.508;8.590;2023-08-30T01:16:23;14.32;;;8.40;;
61250;SDS011;47126;47.508;8.590;2023-08-30T01:18:50;13.15;;;8.15;;
61250;SDS011;47126;47.508;8.590;2023-08-30T01:21:22;17.63;;;8.10;;
61250;SDS011;47126;47.508;8.590;2023-08-30T01:23:54;10.95;;;6.90;;
61250;SDS011;47126;47.508;8.590;2023-08-30T01:26:45;16.05;;;8.55;;
61250;SDS011;47126;47.508;8.590;2023-08-30T01:29:09;13.38;;;7.88;;
61250;SDS011;47126;47.508;8.590;2023-08-30T01:31:40;14.25;;;8.30;;
61250;SDS011;47126;47.508;8.590;2023-08-30T01:34:07;14.27;;;7.78;;
61250;SDS011;47126;47.508;8.590;2023-08-30T01:36:33;11.82;;;7.43;;
61250;SDS011;47126;47.508;8.590;2023-08-30T01:39:00;14.27;;;7.88;;
61250;SDS011;47126;47.508;8.590;2023-08-30T01:41:26;15.80;;;8.45;;
61250;SDS011;47126;47.508;8.590;2023-08-30T01:43:53;14.75;;;8.25;;
61250;SDS011;47126;47.508;8.590;2023-08-30T01:46:20;15.43;;;8.55;;
61250;SDS011;47126;47.508;8.590;2023-08-30T01:48:47;14.10;;;8.43;;
61250;SDS011;47126;47.508;8.590;2023-08-30T01:51:21;13.23;;;8.20;;
61250;SDS011;47126;47.508;8.590;2023-08-30T01:54:07;13.73;;;8.00;;
61250;SDS011;47126;47.508;8.590;2023-08-30T01:56:45;14.18;;;7.80;;
61250;SDS011;47126;47.508;8.590;2023-08-30T01:59:14;11.65;;;7.00;;
61250;SDS011;47126;47.508;8.590;2023-08-30T02:01:42;14.00;;;7.20;;
61250;SDS011;47126;47.508;8.590;2023-08-30T02:04:16;13.38;;;7.18;;
61250;SDS011;47126;47.508;8.590;2023-08-30T02:09:25;13.07;;;7.28;;
61250;SDS011;47126;47.508;8.590;2023-08-30T02:11:55;12.57;;;6.82;;
61250;SDS011;47126;47.508;8.590;2023-08-30T02:14:32;12.45;;;7.32;;
61250;SDS011;47126;47.508;8.590;2023-08-30T02:17:01;13.52;;;7.45;;
61250;SDS011;47126;47.508;8.590;2023-08-30T02:19:31;13.95;;;7.53;;
61250;SDS011;47126;47.508;8.590;2023-08-30T02:21:57;13.88;;;7.45;;
61250;SDS011;47126;47.508;8.590;2023-08-30T02:24:36;13.50;;;7.82;;
61250;SDS011;47126;47.508;8.590;2023-08-30T02:27:04;16.42;;;8.00;;
61250;SDS011;47126;47.508;8.590;2023-08-30T02:29:35;14.90;;;7.82;;
61250;SDS011;47126;47.508;8.590;2023-08-30T02:32:07;16.58;;;7.57;;
61250;SDS011;47126;47.508;8.590;2023-08-30T02:34:33;11.77;;;7.22;;
61250;SDS011;47126;47.508;8.590;2023-08-30T02:37:03;14.88;;;7.97;;
61250;SDS011;47126;47.508;8.590;2023-08-30T02:39:29;13.45;;;7.68;;
61250;SDS011;47126;47.508;8.590;2023-08-30T02:44:45;16.90;;;7.80;;
61250;SDS011;47126;47.508;8.590;2023-08-30T02:47:18;12.88;;;7.80;;
61250;SDS011;47126;47.508;8.590;2023-08-30T02:49:46;13.20;;;7.68;;
61250;SDS011;47126;47.508;8.590;2023-08-30T02:52:20;16.65;;;8.25;;
61250;SDS011;47126;47.508;8.590;2023-08-30T02:54:51;15.30;;;7.95;;
61250;SDS011;47126;47.508;8.590;2023-08-30T02:57:17;12.82;;;7.38;;
61250;SDS011;47126;47.508;8.590;2023-08-30T02:59:53;12.95;;;7.32;;
61250;SDS011;47126;47.508;8.590;2023-08-30T03:02:21;13.93;;;7.10;;
61250;SDS011;47126;47.508;8.590;2023-08-30T03:04:50;12.85;;;7.20;;
61250;SDS011;47126;47.508;8.590;2023-08-30T03:07:19;13.88;;;7.78;;
61250;SDS011;47126;47.508;8.590;2023-08-30T03:09:51;18.40;;;8.65;;
61250;SDS011;47126;47.508;8.590;2023-08-30T03:12:24;15.32;;;7.90;;
61250;SDS011;47126;47.508;8.590;2023-08-30T03:14:53;13.35;;;7.38;;
61250;SDS011;47126;47.508;8.590;2023-08-30T03:20:14;13.80;;;7.50;;
61250;SDS011;47126;47.508;8.590;2023-08-30T03:22:46;14.88;;;7.20;;
61250;SDS011;47126;47.508;8.590;2023-08-30T03:25:18;12.90;;;7.68;;
61250;SDS011;47126;47.508;8.590;2023-08-30T03:27:52;13.55;;;7.53;;
61250;SDS011;47126;47.508;8.590;2023-08-30T03:30:21;13.45;;;8.05;;
61250;SDS011;47126;47.508;8.590;2023-08-30T03:32:53;15.60;;;8.65;;
61250;SDS011;47126;47.508;8.590;2023-08-30T03:35:24;15.23;;;8.85;;
61250;SDS011;47126;47.508;8.590;2023-08-30T03:40:45;21.63;;;8.20;;
61250;SDS011;47126;47.508;8.590;2023-08-30T03:43:17;14.57;;;7.85;;
61250;SDS011;47126;47.508;8.590;2023-08-30T03:45:48;15.90;;;7.95;;
61250;SDS011;47126;47.508;8.590;2023-08-30T03:48:17;13.93;;;7.95;;
61250;SDS011;47126;47.508;8.590;2023-08-30T03:50:49;12.50;;;7.50;;
61250;SDS011;47126;47.508;8.590;2023-08-30T03:53:23;13.77;;;7.72;;
61250;SDS011;47126;47.508;8.590;2023-08-30T03:55:52;13.70;;;7.90;;
61250;SDS011;47126;47.508;8.590;2023-08-30T03:58:22;14.18;;;8.23;;
61250;SDS011;47126;47.508;8.590;2023-08-30T04:00:48;14.52;;;9.07;;
61250;SDS011;47126;47.508;8.590;2023-08-30T04:03:17;14.00;;;8.60;;
61250;SDS011;47126;47.508;8.590;2023-08-30T04:06:03;15.13;;;9.10;;
61250;SDS011;47126;47.508;8.590;2023-08-30T04:08:47;15.88;;;8.85;;
61250;SDS011;47126;47.508;8.590;2023-08-30T04:11:19;14.45;;;8.55;;
61250;SDS011;47126;47.508;8.590;2023-08-30T04:13:54;15.55;;;7.88;;
61250;SDS011;47126;47.508;8.590;2023-08-30T04:16:37;15.05;;;8.35;;
61250;SDS011;47126;47.508;8.590;2023-08-30T04:19:30;16.52;;;8.43;;
61250;SDS011;47126;47.508;8.590;2023-08-30T04:22:01;16.00;;;8.45;;
61250;SDS011;47126;47.508;8.590;2023-08-30T04:24:28;22.13;;;8.70;;
61250;SDS011;47126;47.508;8.590;2023-08-30T04:27:04;14.20;;;8.10;;
61250;SDS011;47126;47.508;8.590;2023-08-30T04:29:30;15.45;;;8.55;;
61250;SDS011;47126;47.508;8.590;2023-08-30T04:32:00;15.90;;;9.43;;
61250;SDS011;47126;47.508;8.590;2023-08-30T04:34:26;17.17;;;8.70;;
61250;SDS011;47126;47.508;8.590;2023-08-30T04:36:54;14.82;;;9.07;;
61250;SDS011;47126;47.508;8.590;2023-08-30T04:39:20;17.77;;;8.90;;
61250;SDS011;47126;47.508;8.590;2023-08-30T04:41:49;15.45;;;9.05;;
61250;SDS011;47126;47.508;8.590;2023-08-30T04:44:15;14.82;;;8.75;;
61250;SDS011;47126;47.508;8.590;2023-08-30T04:46:42;15.50;;;9.05;;
61250;SDS011;47126;47.508;8.590;2023-08-30T04:49:08;16.63;;;8.77;;
61250;SDS011;47126;47.508;8.590;2023-08-30T04:51:34;15.23;;;8.73;;
61250;SDS011;47126;47.508;8.590;2023-08-30T04:54:03;15.20;;;8.95;;
61250;SDS011;47126;47.508;8.590;2023-08-30T04:56:29;17.13;;;9.52;;
61250;SDS011;47126;47.508;8.590;2023-08-30T04:58:55;20.00;;;8.95;;
61250;SDS011;47126;47.508;8.590;2023-08-30T05:01:22;18.73;;;9.20;;
61250;SDS011;47126;47.508;8.590;2023-08-30T05:03:48;14.43;;;8.20;;
61250;SDS011;47126;47.508;8.590;2023-08-30T05:06:14;16.45;;;8.75;;
61250;SDS011;47126;47.508;8.590;2023-08-30T05:08:41;15.80;;;8.70;;
61250;SDS011;47126;47.508;8.590;2023-08-30T05:11:07;14.90;;;8.57;;
61250;SDS011;47126;47.508;8.590;2023-08-30T05:13:33;17.13;;;9.23;;
61250;SDS011;47126;47.508;8.590;2023-08-30T05:15:59;18.30;;;9.45;;
61250;SDS011;47126;47.508;8.590;2023-08-30T05:18:25;26.83;;;9.75;;
61250;SDS011;47126;47.508;8.590;2023-08-30T05:20:51;18.40;;;9.73;;
61250;SDS011;47126;47.508;8.590;2023-08-30T05:23:17;19.23;;;10.50;;
61250;SDS011;47126;47.508;8.590;2023-08-30T05:25:43;20.05;;;10.23;;
61250;SDS011;47126;47.508;8.590;2023-08-30T05:28:09;23.48;;;11.82;;
61250;SDS011;47126;47.508;8.590;2023-08-30T05:30:35;20.15;;;11.15;;
61250;SDS011;47126;47.508;8.590;2023-08-30T05:33:01;18.35;;;10.30;;
61250;SDS011;47126;47.508;8.590;2023-08-30T05:35:27;21.27;;;10.48;;
61250;SDS011;47126;47.508;8.590;2023-08-30T05:37:53;16.88;;;9.77;;
61250;SDS011;47126;47.508;8.590;2023-08-30T05:40:20;19.52;;;10.15;;
61250;SDS011;47126;47.508;8.590;2023-08-30T05:42:45;16.40;;;9.57;;
61250;SDS011;47126;47.508;8.590;2023-08-30T05:45:15;15.38;;;9.88;;
61250;SDS011;47126;47.508;8.590;2023-08-30T05:47:44;16.83;;;10.27;;
61250;SDS011;47126;47.508;8.590;2023-08-30T05:50:10;18.70;;;9.65;;
61250;SDS011;47126;47.508;8.590;2023-08-30T05:52:36;14.75;;;9.63;;
61250;SDS011;47126;47.508;8.590;2023-08-30T05:55:06;17.47;;;10.70;;
61250;SDS011;47126;47.508;8.590;2023-08-30T05:57:32;19.55;;;10.38;;
61250;SDS011;47126;47.508;8.590;2023-08-30T05:59:59;17.50;;;10.60;;
61250;SDS011;47126;47.508;8.590;2023-08-30T06:02:25;19.08;;;10.05;;
61250;SDS011;47126;47.508;8.590;2023-08-30T06:04:51;18.13;;;10.73;;
61250;SDS011;47126;47.508;8.590;2023-08-30T06:07:20;20.50;;;10.82;;
61250;SDS011;47126;47.508;8.590;2023-08-30T06:09:45;17.23;;;10.07;;
61250;SDS011;47126;47.508;8.590;2023-08-30T06:12:11;18.85;;;10.02;;
61250;SDS011;47126;47.508;8.590;2023-08-30T06:14:38;25.52;;;10.95;;
61250;SDS011;47126;47.508;8.590;2023-08-30T06:17:03;18.00;;;10.32;;
61250;SDS011;47126;47.508;8.590;2023-08-30T06:19:30;17.23;;;9.77;;
61250;SDS011;47126;47.508;8.590;2023-08-30T06:21:56;15.52;;;9.80;;
61250;SDS011;47126;47.508;8.590;2023-08-30T06:24:22;16.73;;;10.15;;
61250;SDS011;47126;47.508;8.590;2023-08-30T06:26:48;18.15;;;9.35;;
61250;SDS011;47126;47.508;8.590;2023-08-30T06:29:16;15.85;;;9.25;;
61250;SDS011;47126;47.508;8.590;2023-08-30T06:31:45;14.70;;;8.73;;
61250;SDS011;47126;47.508;8.590;2023-08-30T06:34:11;15.15;;;9.02;;
61250;SDS011;47126;47.508;8.590;2023-08-30T06:36:38;16.25;;;10.07;;
61250;SDS011;47126;47.508;8.590;2023-08-30T06:39:06;17.38;;;9.68;;
61250;SDS011;47126;47.508;8.590;2023-08-30T06:41:32;14.05;;;9.07;;
61250;SDS011;47126;47.508;8.590;2023-08-30T06:43:58;18.15;;;10.52;;
61250;SDS011;47126;47.508;8.590;2023-08-30T06:46:24;20.48;;;11.38;;
61250;SDS011;47126;47.508;8.590;2023-08-30T06:48:50;17.42;;;10.40;;
61250;SDS011;47126;47.508;8.590;2023-08-30T06:51:19;19.83;;;9.65;;
61250;SDS011;47126;47.508;8.590;2023-08-30T06:53:45;15.80;;;9.68;;
61250;SDS011;47126;47.508;8.590;2023-08-30T06:56:12;16.10;;;9.85;;
61250;SDS011;47126;47.508;8.590;2023-08-30T06:58:38;16.73;;;10.35;;
61250;SDS011;47126;47.508;8.590;2023-08-30T07:01:07;17.77;;;10.82;;
61250;SDS011;47126;47.508;8.590;2023-08-30T07:03:37;18.33;;;11.40;;
61250;SDS011;47126;47.508;8.590;2023-08-30T07:06:07;17.25;;;9.57;;
61250;SDS011;47126;47.508;8.590;2023-08-30T07:08:33;14.95;;;9.73;;
61250;SDS011;47126;47.508;8.590;2023-08-30T07:10:59;14.70;;;9.30;;
61250;SDS011;47126;47.508;8.590;2023-08-30T07:13:28;15.73;;;8.95;;
61250;SDS011;47126;47.508;8.590;2023-08-30T07:15:54;16.13;;;8.68;;
61250;SDS011;47126;47.508;8.590;2023-08-30T07:18:23;13.40;;;9.20;;
61250;SDS011;47126;47.508;8.590;2023-08-30T07:20:54;12.98;;;8.13;;
61250;SDS011;47126;47.508;8.590;2023-08-30T07:23:23;14.48;;;7.40;;
61250;SDS011;47126;47.508;8.590;2023-08-30T07:25:52;13.05;;;7.75;;
61250;SDS011;47126;47.508;8.590;2023-08-30T07:28:19;13.57;;;7.82;;
61250;SDS011;47126;47.508;8.590;2023-08-30T07:30:44;11.95;;;7.47;;
61250;SDS011;47126;47.508;8.590;2023-08-30T07:33:11;51.63;;;32.65;;
61250;SDS011;47126;47.508;8.590;2023-08-30T07:35:37;35.20;;;19.30;;
61250;SDS011;47126;47.508;8.590;2023-08-30T07:38:04;14.25;;;9.80;;
61250;SDS011;47126;47.508;8.590;2023-08-30T07:43:35;16.60;;;10.30;;
61250;SDS011;47126;47.508;8.590;2023-08-30T07:46:04;15.90;;;9.57;;
61250;SDS011;47126;47.508;8.590;2023-08-30T07:48:35;13.10;;;8.57;;
61250;SDS011;47126;47.508;8.590;2023-08-30T07:51:01;16.25;;;9.48;;
61250;SDS011;47126;47.508;8.590;2023-08-30T07:53:27;13.15;;;8.23;;
61250;SDS011;47126;47.508;8.590;2023-08-30T07:55:53;14.07;;;9.25;;
61250;SDS011;47126;47.508;8.590;2023-08-30T07:58:19;13.13;;;8.77;;
61250;SDS011;47126;47.508;8.590;2023-08-30T08:00:45;13.68;;;8.85;;
61250;SDS011;47126;47.508;8.590;2023-08-30T08:03:17;13.98;;;9.07;;
61250;SDS011;47126;47.508;8.590;2023-08-30T08:05:43;15.50;;;8.90;;
61250;SDS011;47126;47.508;8.590;2023-08-30T08:08:09;14.50;;;8.73;;
61250;SDS011;47126;47.508;8.590;2023-08-30T08:10:36;14.27;;;8.45;;
61250;SDS011;47126;47.508;8.590;2023-08-30T08:13:02;12.43;;;8.20;;
61250;SDS011;47126;47.508;8.590;2023-08-30T08:15:31;12.77;;;8.07;;
61250;SDS011;47126;47.508;8.590;2023-08-30T08:17:57;12.00;;;7.65;;
61250;SDS011;47126;47.508;8.590;2023-08-30T08:20:23;16.83;;;9.05;;
61250;SDS011;47126;47.508;8.590;2023-08-30T08:22:49;13.05;;;9.18;;
61250;SDS011;47126;47.508;8.590;2023-08-30T08:25:15;13.73;;;8.70;;
61250;SDS011;47126;47.508;8.590;2023-08-30T08:27:41;14.02;;;8.65;;
61250;SDS011;47126;47.508;8.590;2023-08-30T08:30:07;12.43;;;8.32;;
61250;SDS011;47126;47.508;8.590;2023-08-30T08:32:34;15.68;;;9.70;;
61250;SDS011;47126;47.508;8.590;2023-08-30T08:35:01;14.38;;;8.93;;
61250;SDS011;47126;47.508;8.590;2023-08-30T08:37:27;11.73;;;7.22;;
61250;SDS011;47126;47.508;8.590;2023-08-30T08:39:53;12.23;;;7.78;;
61250;SDS011;47126;47.508;8.590;2023-08-30T08:42:20;12.10;;;7.95;;
61250;SDS011;47126;47.508;8.590;2023-08-30T08:44:47;10.80;;;7.20;;
61250;SDS011;47126;47.508;8.590;2023-08-30T08:47:19;11.00;;;7.70;;
61250;SDS011;47126;47.508;8.590;2023-08-30T08:49:45;12.25;;;7.38;;
61250;SDS011;47126;47.508;8.590;2023-08-30T08:52:12;10.82;;;6.72;;
61250;SDS011;47126;47.508;8.590;2023-08-30T08:54:38;10.73;;;7.53;;
61250;SDS011;47126;47.508;8.590;2023-08-30T08:57:05;10.77;;;7.18;;
61250;SDS011;47126;47.508;8.590;2023-08-30T08:59:31;10.77;;;7.05;;
61250;SDS011;47126;47.508;8.590;2023-08-30T09:02:01;13.70;;;6.85;;
61250;SDS011;47126;47.508;8.590;2023-08-30T09:04:29;10.98;;;7.47;;
61250;SDS011;47126;47.508;8.590;2023-08-30T09:06:56;10.82;;;6.85;;
61250;SDS011;47126;47.508;8.590;2023-08-30T09:09:23;12.30;;;7.07;;
61250;SDS011;47126;47.508;8.590;2023-08-30T09:11:50;8.80;;;5.65;;
61250;SDS011;47126;47.508;8.590;2023-08-30T09:14:16;11.88;;;4.45;;
61250;SDS011;47126;47.508;8.590;2023-08-30T09:16:42;5.75;;;4.00;;
61250;SDS011;47126;47.508;8.590;2023-08-30T09:19:08;6.25;;;4.03;;
61250;SDS011;47126;47.508;8.590;2023-08-30T09:21:35;5.03;;;3.22;;
61250;SDS011;47126;47.508;8.590;2023-08-30T09:24:05;5.70;;;3.10;;
61250;SDS011;47126;47.508;8.590;2023-08-30T09:26:31;5.33;;;2.73;;
61250;SDS011;47126;47.508;8.590;2023-08-30T09:29:16;9.63;;;2.95;;
61250;SDS011;47126;47.508;8.590;2023-08-30T09:31:42;5.47;;;2.72;;
61250;SDS011;47126;47.508;8.590;2023-08-30T09:34:08;8.88;;;2.97;;
61250;SDS011;47126;47.508;8.590;2023-08-30T09:36:39;7.93;;;3.28;;
61250;SDS011;47126;47.508;8.590;2023-08-30T09:41:31;5.40;;;2.80;;
61250;SDS011;47126;47.508;8.590;2023-08-30T09:44:06;4.45;;;2.70;;
61250;SDS011;47126;47.508;8.590;2023-08-30T09:46:32;6.25;;;3.78;;
61250;SDS011;47126;47.508;8.590;2023-08-30T09:49:05;3.78;;;2.53;;
61250;SDS011;47126;47.508;8.590;2023-08-30T09:51:32;2.80;;;2.42;;
61250;SDS011;47126;47.508;8.590;2023-08-30T09:54:00;4.45;;;2.78;;
61250;SDS011;47126;47.508;8.590;2023-08-30T09:56:30;4.15;;;2.47;;
61250;SDS011;47126;47.508;8.590;2023-08-30T09:58:57;7.13;;;3.28;;
61250;SDS011;47126;47.508;8.590;2023-08-30T10:01:25;6.78;;;2.47;;
61250;SDS011;47126;47.508;8.590;2023-08-30T10:03:51;5.25;;;2.55;;
61250;SDS011;47126;47.508;8.590;2023-08-30T10:06:20;4.65;;;2.72;;
61250;SDS011;47126;47.508;8.590;2023-08-30T10:08:47;4.78;;;2.25;;
61250;SDS011;47126;47.508;8.590;2023-08-30T10:11:13;4.50;;;2.50;;
61250;SDS011;47126;47.508;8.590;2023-08-30T10:13:40;2.85;;;2.00;;
61250;SDS011;47126;47.508;8.590;2023-08-30T10:16:08;3.67;;;2.40;;
61250;SDS011;47126;47.508;8.590;2023-08-30T10:18:38;4.15;;;2.38;;
61250;SDS011;47126;47.508;8.590;2023-08-30T10:21:05;4.13;;;2.55;;
61250;SDS011;47126;47.508;8.590;2023-08-30T10:23:33;4.10;;;2.97;;
61250;SDS011;47126;47.508;8.590;2023-08-30T10:25:59;5.43;;;3.10;;
61250;SDS011;47126;47.508;8.590;2023-08-30T10:28:26;4.63;;;2.80;;
61250;SDS011;47126;47.508;8.590;2023-08-30T10:30:53;10.95;;;5.70;;
61250;SDS011;47126;47.508;8.590;2023-08-30T10:33:19;3.33;;;2.50;;
61250;SDS011;47126;47.508;8.590;2023-08-30T10:35:50;5.97;;;2.55;;
61250;SDS011;47126;47.508;8.590;2023-08-30T10:38:26;6.20;;;3.25;;
61250;SDS011;47126;47.508;8.590;2023-08-30T10:40:52;11.68;;;7.57;;
61250;SDS011;47126;47.508;8.590;2023-08-30T10:43:28;3.90;;;2.30;;
61250;SDS011;47126;47.508;8.590;2023-08-30T10:46:01;16.58;;;8.88;;
61250;SDS011;47126;47.508;8.590;2023-08-30T10:48:39;8.48;;;3.45;;
61250;SDS011;47126;47.508;8.590;2023-08-30T10:51:21;6.95;;;3.15;;
61250;SDS011;47126;47.508;8.590;2023-08-30T10:53:57;8.35;;;4.38;;
61250;SDS011;47126;47.508;8.590;2023-08-30T10:56:27;4.07;;;2.33;;
61250;SDS011;47126;47.508;8.590;2023-08-30T11:01:20;4.70;;;2.30;;
61250;SDS011;47126;47.508;8.590;2023-08-30T11:03:46;3.17;;;1.80;;
61250;SDS011;47126;47.508;8.590;2023-08-30T11:06:13;4.22;;;2.22;;
61250;SDS011;47126;47.508;8.590;2023-08-30T11:08:41;3.55;;;2.20;;
61250;SDS011;47126;47.508;8.590;2023-08-30T11:11:07;5.88;;;2.13;;
61250;SDS011;47126;47.508;8.590;2023-08-30T11:13:35;3.08;;;1.90;;
61250;SDS011;47126;47.508;8.590;2023-08-30T11:16:02;5.65;;;3.38;;
61250;SDS011;47126;47.508;8.590;2023-08-30T11:18:29;4.85;;;3.20;;
61250;SDS011;47126;47.508;8.590;2023-08-30T11:20:59;4.70;;;3.30;;
61250;SDS011;47126;47.508;8.590;2023-08-30T11:23:26;3.55;;;2.67;;
61250;SDS011;47126;47.508;8.590;2023-08-30T11:25:54;4.50;;;2.83;;
61250;SDS011;47126;47.508;8.590;2023-08-30T11:28:24;3.05;;;2.17;;
61250;SDS011;47126;47.508;8.590;2023-08-30T11:30:52;3.38;;;2.10;;
61250;SDS011;47126;47.508;8.590;2023-08-30T11:33:22;6.53;;;2.22;;
61250;SDS011;47126;47.508;8.590;2023-08-30T11:35:48;5.80;;;2.00;;
61250;SDS011;47126;47.508;8.590;2023-08-30T11:38:15;4.28;;;2.17;;
61250;SDS011;47126;47.508;8.590;2023-08-30T11:40:44;6.30;;;3.28;;
61250;SDS011;47126;47.508;8.590;2023-08-30T11:43:10;4.00;;;2.70;;
61250;SDS011;47126;47.508;8.590;2023-08-30T11:45:38;5.47;;;2.97;;
61250;SDS011;47126;47.508;8.590;2023-08-30T11:48:05;3.53;;;2.03;;
61250;SDS011;47126;47.508;8.590;2023-08-30T11:50:34;5.97;;;2.50;;
61250;SDS011;47126;47.508;8.590;2023-08-30T11:53:14;5.07;;;2.20;;
61250;SDS011;47126;47.508;8.590;2023-08-30T11:55:51;6.78;;;2.83;;
61250;SDS011;47126;47.508;8.590;2023-08-30T11:58:20;3.10;;;2.10;;
61250;SDS011;47126;47.508;8.590;2023-08-30T12:00:49;5.90;;;2.63;;
61250;SDS011;47126;47.508;8.590;2023-08-30T12:03:23;4.03;;;2.47;;
61250;SDS011;47126;47.508;8.590;2023-08-30T12:05:54;4.25;;;2.72;;
61250;SDS011;47126;47.508;8.590;2023-08-30T12:08:28;3.95;;;2.30;;
61250;SDS011;47126;47.508;8.590;2023-08-30T12:10:54;6.38;;;3.10;;
61250;SDS011;47126;47.508;8.590;2023-08-30T12:13:32;2.88;;;2.30;;
61250;SDS011;47126;47.508;8.590;2023-08-30T12:16:07;3.80;;;2.42;;
61250;SDS011;47126;47.508;8.590;2023-08-30T12:18:33;5.55;;;2.38;;
61250;SDS011;47126;47.508;8.590;2023-08-30T12:21:01;5.50;;;2.25;;
61250;SDS011;47126;47.508;8.590;2023-08-30T12:23:31;4.35;;;2.63;;
61250;SDS011;47126;47.508;8.590;2023-08-30T12:25:58;4.47;;;2.80;;
61250;SDS011;47126;47.508;8.590;2023-08-30T12:28:25;5.88;;;3.00;;
61250;SDS011;47126;47.508;8.590;2023-08-30T12:30:52;3.00;;;2.20;;
61250;SDS011;47126;47.508;8.590;2023-08-30T12:33:18;3.08;;;2.05;;
61250;SDS011;47126;47.508;8.590;2023-08-30T12:35:44;2.45;;;2.08;;
61250;SDS011;47126;47.508;8.590;2023-08-30T12:38:11;3.60;;;2.30;;
61250;SDS011;47126;47.508;8.590;2023-08-30T12:40:37;5.68;;;3.10;;
61250;SDS011;47126;47.508;8.590;2023-08-30T12:43:04;4.97;;;2.75;;
61250;SDS011;47126;47.508;8.590;2023-08-30T12:45:30;4.95;;;2.33;;
61250;SDS011;47126;47.508;8.590;2023-08-30T12:47:56;4.80;;;2.50;;
61250;SDS011;47126;47.508;8.590;2023-08-30T12:50:24;3.35;;;2.03;;
61250;SDS011;47126;47.508;8.590;2023-08-30T12:52:50;6.90;;;3.45;;
61250;SDS011;47126;47.508;8.590;2023-08-30T12:58:21;5.20;;;2.10;;
61250;SDS011;47126;47.508;8.590;2023-08-30T13:00:50;3.75;;;2.22;;
61250;SDS011;47126;47.508;8.590;2023-08-30T13:03:19;4.90;;;2.45;;
61250;SDS011;47126;47.508;8.590;2023-08-30T13:05:59;10.93;;;5.10;;
61250;SDS011;47126;47.508;8.590;2023-08-30T13:08:55;4.85;;;2.45;;
61250;SDS011;47126;47.508;8.590;2023-08-30T13:11:35;3.97;;;2.20;;
61250;SDS011;47126;47.508;8.590;2023-08-30T13:17:12;4.15;;;2.90;;
61250;SDS011;47126;47.508;8.590;2023-08-30T13:19:49;9.77;;;4.20;;
61250;SDS011;47126;47.508;8.590;2023-08-30T13:22:42;5.85;;;3.42;;
61250;SDS011;47126;47.508;8.590;2023-08-30T13:25:16;6.22;;;3.42;;
61250;SDS011;47126;47.508;8.590;2023-08-30T13:33:25;6.63;;;3.60;;
61250;SDS011;47126;47.508;8.590;2023-08-30T13:35:52;10.47;;;4.43;;
61250;SDS011;47126;47.508;8.590;2023-08-30T13:38:21;7.05;;;3.78;;
61250;SDS011;47126;47.508;8.590;2023-08-30T13:41:01;5.95;;;3.38;;
61250;SDS011;47126;47.508;8.590;2023-08-30T13:43:29;6.22;;;3.60;;
61250;SDS011;47126;47.508;8.590;2023-08-30T13:46:00;4.57;;;2.50;;
61250;SDS011;47126;47.508;8.590;2023-08-30T13:48:37;3.75;;;2.72;;
61250;SDS011;47126;47.508;8.590;2023-08-30T13:56:56;2.17;;;1.40;;
61250;SDS011;47126;47.508;8.590;2023-08-30T13:59:24;5.80;;;2.78;;
61250;SDS011;47126;47.508;8.590;2023-08-30T14:01:56;3.08;;;1.70;;
61250;SDS011;47126;47.508;8.590;2023-08-30T14:04:32;1.90;;;1.50;;
61250;SDS011;47126;47.508;8.590;2023-08-30T14:07:01;1.92;;;1.58;;
61250;SDS011;47126;47.508;8.590;2023-08-30T14:09:34;2.17;;;1.50;;
61250;SDS011;47126;47.508;8.590;2023-08-30T14:12:00;7.95;;;3.78;;
61250;SDS011;47126;47.508;8.590;2023-08-30T14:14:34;2.53;;;1.60;;
61250;SDS011;47126;47.508;8.590;2023-08-30T14:17:01;2.72;;;1.75;;
61250;SDS011;47126;47.508;8.590;2023-08-30T14:19:45;2.63;;;1.58;;
61250;SDS011;47126;47.508;8.590;2023-08-30T14:22:22;3.35;;;1.52;;
61250;SDS011;47126;47.508;8.590;2023-08-30T14:25:01;1.65;;;1.35;;
61250;SDS011;47126;47.508;8.590;2023-08-30T14:30:24;2.00;;;1.33;;
61250;SDS011;47126;47.508;8.590;2023-08-30T14:35:58;2.13;;;1.50;;
61250;SDS011;47126;47.508;8.590;2023-08-30T14:38:40;2.15;;;1.50;;
61250;SDS011;47126;47.508;8.590;2023-08-30T14:44:16;2.08;;;1.27;;
61250;SDS011;47126;47.508;8.590;2023-08-30T14:49:42;6.55;;;2.25;;
61250;SDS011;47126;47.508;8.590;2023-08-30T14:55:32;3.53;;;1.95;;
61250;SDS011;47126;47.508;8.590;2023-08-30T14:58:11;1.92;;;1.42;;
61250;SDS011;47126;47.508;8.590;2023-08-30T15:04:18;1.50;;;1.40;;
61250;SDS011;47126;47.508;8.590;2023-08-30T15:07:10;4.22;;;2.25;;
61250;SDS011;47126;47.508;8.590;2023-08-30T15:09:37;2.25;;;1.67;;
61250;SDS011;47126;47.508;8.590;2023-08-30T15:12:06;2.83;;;1.70;;
61250;SDS011;47126;47.508;8.590;2023-08-30T15:20:56;1.65;;;1.48;;
61250;SDS011;47126;47.508;8.590;2023-08-30T15:23:27;2.88;;;1.83;;
61250;SDS011;47126;47.508;8.590;2023-08-30T15:26:15;2.88;;;1.80;;
61250;SDS011;47126;47.508;8.590;2023-08-30T15:28:54;2.10;;;1.67;;
61250;SDS011;47126;47.508;8.590;2023-08-30T15:34:46;4.00;;;1.70;;
61250;SDS011;47126;47.508;8.590;2023-08-30T15:37:12;2.45;;;2.08;;
61250;SDS011;47126;47.508;8.590;2023-08-30T15:42:57;2.85;;;2.17;;
61250;SDS011;47126;47.508;8.590;2023-08-30T15:51:51;3.28;;;2.03;;
61250;SDS011;47126;47.508;8.590;2023-08-30T16:00:25;3.33;;;2.00;;
61250;SDS011;47126;47.508;8.590;2023-08-30T16:02:58;3.97;;;2.20;;
61250;SDS011;47126;47.508;8.590;2023-08-30T16:05:33;5.38;;;2.45;;
61250;SDS011;47126;47.508;8.590;2023-08-30T16:08:22;3.30;;;2.15;;
61250;SDS011;47126;47.508;8.590;2023-08-30T16:10:56;3.60;;;2.28;;